createdAt,value
2022-12-25T09:45:03.917Z,5.7
2022-12-25T09:50:11.021Z,5.4
2022-12-25T09:55:18.209Z,5.4
2022-12-25T10:00:25.418Z,5.7
2022-12-25T10:05:32.588Z,5.4
2022-12-25T10:10:39.757Z,5.7
2022-12-25T10:15:47.049Z,5.7
2022-12-25T10:20:54.193Z,5.4
2022-12-25T10:26:00.894Z,4.7
2022-12-25T10:31:08.130Z,5.4
2022-12-25T10:36:15.282Z,5.4
2022-12-25T10:41:22.449Z,5.4
2022-12-25T10:46:29.653Z,5.4
2022-12-25T10:51:36.890Z,5.1
2022-12-25T10:56:44.014Z,5.7
2022-12-25T11:01:51.199Z,5.4
2022-12-25T11:06:58.393Z,5.4
2022-12-25T11:12:05.574Z,5.7
2022-12-25T11:17:12.891Z,5.4
2022-12-25T11:22:20.056Z,5.4
2022-12-25T11:27:27.222Z,5.7
2022-12-25T11:32:34.416Z,5.1
2022-12-25T11:37:41.640Z,5.4
2022-12-25T11:42:48.715Z,5.4
2022-12-25T11:47:55.900Z,5.4
2022-12-25T11:53:03.227Z,5.4
2022-12-25T11:58:10.380Z,5.7
2022-12-25T12:03:17.531Z,5.7
2022-12-25T12:08:24.719Z,5.4
2022-12-25T12:13:31.906Z,5.4
2022-12-25T12:18:39.202Z,5.7
2022-12-25T12:23:46.298Z,5.7
2022-12-25T12:28:53.546Z,5.7
2022-12-25T12:34:00.740Z,5.7
2022-12-25T12:39:07.879Z,5.7
2022-12-25T12:44:15.077Z,5.7
2022-12-25T12:49:22.336Z,6
2022-12-25T12:54:29.479Z,6
2022-12-25T12:59:36.629Z,6
2022-12-25T13:04:43.804Z,5.7
2022-12-25T13:09:50.986Z,5.7
2022-12-25T13:14:58.225Z,6
2022-12-25T13:20:05.369Z,6
2022-12-25T13:25:12.618Z,6.3
2022-12-25T13:30:19.744Z,5.7
2022-12-25T13:35:26.955Z,5.7
2022-12-25T13:40:34.241Z,6
2022-12-25T13:45:41.319Z,6
2022-12-25T13:50:48.599Z,6.3
2022-12-25T13:55:55.705Z,6
2022-12-25T14:01:03.273Z,6
2022-12-25T14:06:10.140Z,6
2022-12-25T14:11:17.378Z,6.7
2022-12-25T14:16:24.500Z,6.3
2022-12-25T14:21:31.752Z,6
2022-12-25T14:26:38.979Z,6.7
2022-12-25T14:31:46.074Z,6.3
2022-12-25T14:36:53.324Z,6
2022-12-25T14:42:00.454Z,6.3
2022-12-25T14:47:07.642Z,6.3
2022-12-25T14:52:14.965Z,6
2022-12-25T14:57:22.149Z,6.3
2022-12-25T15:02:29.191Z,7
2022-12-25T15:07:36.479Z,6
2022-12-25T15:12:43.606Z,6.3
2022-12-25T15:17:50.787Z,6
2022-12-25T15:22:58.084Z,6
2022-12-25T15:28:05.150Z,5.7
2022-12-25T15:33:12.322Z,6
2022-12-25T15:38:19.520Z,5.7
2022-12-25T15:43:26.752Z,6.3
2022-12-25T15:48:33.907Z,6
2022-12-25T15:53:41.083Z,6.3
2022-12-25T15:58:48.292Z,6.3
2022-12-25T16:03:55.461Z,6.7
2022-12-25T16:09:02.816Z,6.7
2022-12-25T16:14:09.912Z,6.3
2022-12-25T16:19:17.155Z,6.7
2022-12-25T16:24:24.341Z,6.3
2022-12-25T16:29:31.480Z,6.3
2022-12-25T16:34:38.735Z,6.7
2022-12-25T16:39:45.870Z,6
2022-12-25T16:44:53.094Z,6
2022-12-25T16:50:00.242Z,6
2022-12-25T16:55:07.489Z,6.3
2022-12-25T17:00:14.641Z,6.3
2022-12-25T17:05:21.856Z,6.3
2022-12-25T17:10:29.003Z,6
2022-12-25T17:15:36.339Z,6.3
2022-12-25T17:20:43.371Z,6
2022-12-25T17:25:50.555Z,6.3
2022-12-25T17:30:57.748Z,6.7
2022-12-25T17:36:04.939Z,6.7
2022-12-25T17:41:12.119Z,6.3
2022-12-25T17:46:19.310Z,6.3
2022-12-25T17:51:26.491Z,6
2022-12-25T17:56:33.692Z,6.7
2022-12-25T18:01:40.890Z,6.3
2022-12-25T18:06:48.067Z,6.7
2022-12-25T18:11:55.252Z,6
2022-12-25T18:17:02.520Z,6
2022-12-25T18:22:09.712Z,6.7
2022-12-25T18:27:16.940Z,7
2022-12-25T18:32:24.090Z,6.7
2022-12-25T18:37:31.272Z,6.3
2022-12-25T18:42:38.476Z,6.7
2022-12-25T18:47:45.670Z,6.7
2022-12-25T18:52:52.863Z,6
2022-12-25T18:58:00.101Z,6.3
2022-12-25T19:03:07.271Z,6.3
2022-12-25T19:08:14.420Z,6.7
2022-12-25T19:13:21.601Z,6
2022-12-25T19:18:28.819Z,6.7
2022-12-25T19:23:36.026Z,6.3
2022-12-25T19:28:43.177Z,6.7
2022-12-25T19:33:50.437Z,6.7
2022-12-25T19:38:57.551Z,7.3
2022-12-25T19:44:04.771Z,6.7
2022-12-25T19:49:11.921Z,7
2022-12-25T19:54:19.118Z,6.3
2022-12-25T19:59:26.293Z,6.7
2022-12-25T20:04:33.143Z,6.7
2022-12-25T20:09:39.955Z,7
2022-12-25T20:14:47.061Z,6.7
2022-12-25T20:19:54.478Z,6
2022-12-25T20:25:01.459Z,6.7
2022-12-25T20:30:08.726Z,6.7
2022-12-25T20:35:15.849Z,6.7
2022-12-25T20:40:23.017Z,7.3
2022-12-25T20:45:30.324Z,7
2022-12-25T20:50:37.465Z,6.7
2022-12-25T20:55:44.693Z,6
2022-12-25T21:00:51.897Z,6.7
2022-12-25T21:05:59.040Z,7
2022-12-25T21:11:06.189Z,6.3
2022-12-25T21:16:12.918Z,6.7
2022-12-25T21:21:20.093Z,7
2022-12-25T21:26:27.305Z,6.7
2022-12-25T21:31:34.458Z,6.7
2022-12-25T21:36:41.651Z,6.7
2022-12-25T21:41:48.852Z,6.7
2022-12-25T21:46:56.034Z,6.7
2022-12-25T21:52:03.247Z,6.7
2022-12-25T21:57:10.458Z,6.7
2022-12-25T22:02:17.589Z,6.3
2022-12-25T22:07:24.851Z,7
2022-12-25T22:12:31.068Z,6.3
2022-12-25T22:22:44.182Z,6.7
2022-12-25T22:27:50.044Z,7
2022-12-25T22:38:03.125Z,6.7
2022-12-25T22:43:09.705Z,6.7
2022-12-25T22:48:16.271Z,6.7
2022-12-25T22:53:22.833Z,6.7
2022-12-25T22:58:29.408Z,7
2022-12-25T23:03:35.991Z,6.7
2022-12-25T23:08:42.580Z,7
2022-12-25T23:13:49.120Z,6.7
2022-12-25T23:18:55.713Z,6.7
2022-12-25T23:24:02.275Z,6.7
2022-12-25T23:29:08.846Z,6.7
2022-12-25T23:34:14.687Z,6.3
2022-12-25T23:39:21.258Z,6.7
2022-12-25T23:44:27.825Z,6.7
2022-12-25T23:49:34.396Z,7
2022-12-25T23:54:40.973Z,7
2022-12-25T23:59:47.547Z,6.3
